sensor_id;sensor_type;location;lat;lon;timestamp;pressure;altitude;pressure_sealevel;temperature;humidity
62438;BME280;48481;0.000;0.000;2023-05-29T00:00:24;101930.72;;;11.66;61.49
62438;BME280;48481;0.000;0.000;2023-05-29T00:02:50;101933.38;;;11.66;61.85
62438;BME280;48481;0.000;0.000;2023-05-29T00:05:16;101935.66;;;11.52;62.22
62438;BME280;48481;0.000;0.000;2023-05-29T00:07:42;101930.13;;;11.92;60.82
62438;BME280;48481;0.000;0.000;2023-05-29T00:10:09;101934.94;;;11.59;61.88
62438;BME280;48481;0.000;0.000;2023-05-29T00:12:35;101937.00;;;11.75;61.39
62438;BME280;48481;0.000;0.000;2023-05-29T00:15:01;101937.88;;;11.56;62.15
62438;BME280;48481;0.000;0.000;2023-05-29T00:17:28;101938.19;;;11.53;62.50
62438;BME280;48481;0.000;0.000;2023-05-29T00:19:54;101950.09;;;11.30;62.87
62438;BME280;48481;0.000;0.000;2023-05-29T00:22:19;101942.28;;;11.28;62.84
62438;BME280;48481;0.000;0.000;2023-05-29T00:24:45;101945.72;;;11.48;62.07
62438;BME280;48481;0.000;0.000;2023-05-29T00:27:12;101944.22;;;11.36;62.50
62438;BME280;48481;0.000;0.000;2023-05-29T00:29:38;101958.59;;;11.24;62.79
62438;BME280;48481;0.000;0.000;2023-05-29T00:32:06;101941.44;;;11.37;61.94
62438;BME280;48481;0.000;0.000;2023-05-29T00:34:31;101949.97;;;11.12;63.18
62438;BME280;48481;0.000;0.000;2023-05-29T00:36:57;101960.03;;;11.08;63.10
62438;BME280;48481;0.000;0.000;2023-05-29T00:39:23;101961.41;;;10.93;62.84
62438;BME280;48481;0.000;0.000;2023-05-29T00:41:48;101965.03;;;10.92;62.99
62438;BME280;48481;0.000;0.000;2023-05-29T00:44:21;101960.41;;;10.75;63.61
62438;BME280;48481;0.000;0.000;2023-05-29T00:46:51;101970.19;;;10.84;63.27
62438;BME280;48481;0.000;0.000;2023-05-29T00:49:19;101968.78;;;10.70;63.53
62438;BME280;48481;0.000;0.000;2023-05-29T00:51:45;101974.75;;;10.63;64.02
62438;BME280;48481;0.000;0.000;2023-05-29T00:54:13;101976.84;;;10.69;63.25
62438;BME280;48481;0.000;0.000;2023-05-29T00:56:40;101992.31;;;10.54;63.78
62438;BME280;48481;0.000;0.000;2023-05-29T00:59:09;101997.84;;;10.41;64.14
62438;BME280;48481;0.000;0.000;2023-05-29T01:01:34;102000.84;;;10.27;63.72
62438;BME280;48481;0.000;0.000;2023-05-29T01:04:02;101990.25;;;9.97;64.95
62438;BME280;48481;0.000;0.000;2023-05-29T01:06:28;101995.16;;;10.32;63.74
62438;BME280;48481;0.000;0.000;2023-05-29T01:08:54;101995.66;;;9.85;65.40
62438;BME280;48481;0.000;0.000;2023-05-29T01:11:24;101998.47;;;9.94;65.31
62438;BME280;48481;0.000;0.000;2023-05-29T01:13:53;102010.63;;;10.06;64.75
62438;BME280;48481;0.000;0.000;2023-05-29T01:16:29;102009.69;;;9.65;65.87
62438;BME280;48481;0.000;0.000;2023-05-29T01:21:58;102015.31;;;9.51;66.32
62438;BME280;48481;0.000;0.000;2023-05-29T01:24:48;102012.75;;;9.81;65.06
62438;BME280;48481;0.000;0.000;2023-05-29T01:27:17;102017.88;;;9.62;65.06
62438;BME280;48481;0.000;0.000;2023-05-29T01:29:44;102016.47;;;9.79;64.84
62438;BME280;48481;0.000;0.000;2023-05-29T01:32:11;102013.75;;;9.69;65.10
62438;BME280;48481;0.000;0.000;2023-05-29T01:34:37;102005.13;;;9.88;64.28
62438;BME280;48481;0.000;0.000;2023-05-29T01:37:02;102013.84;;;9.79;64.41
62438;BME280;48481;0.000;0.000;2023-05-29T01:39:28;102006.53;;;9.50;65.11
62438;BME280;48481;0.000;0.000;2023-05-29T01:41:54;102006.75;;;9.38;65.64
62438;BME280;48481;0.000;0.000;2023-05-29T01:44:20;102008.81;;;9.34;65.90
62438;BME280;48481;0.000;0.000;2023-05-29T01:46:47;102009.63;;;9.56;64.94
62438;BME280;48481;0.000;0.000;2023-05-29T01:49:14;102019.19;;;9.47;65.42
62438;BME280;48481;0.000;0.000;2023-05-29T01:51:40;102014.47;;;9.30;65.88
62438;BME280;48481;0.000;0.000;2023-05-29T01:54:06;102021.28;;;9.00;66.67
62438;BME280;48481;0.000;0.000;2023-05-29T01:56:32;102023.78;;;9.13;66.45
62438;BME280;48481;0.000;0.000;2023-05-29T01:58:58;102012.47;;;9.22;66.11
62438;BME280;48481;0.000;0.000;2023-05-29T02:01:26;102030.63;;;9.04;66.40
62438;BME280;48481;0.000;0.000;2023-05-29T02:03:52;102026.31;;;9.14;65.97
62438;BME280;48481;0.000;0.000;2023-05-29T02:06:17;102023.31;;;9.40;65.24
62438;BME280;48481;0.000;0.000;2023-05-29T02:08:43;102027.69;;;9.50;64.76
62438;BME280;48481;0.000;0.000;2023-05-29T02:11:08;102030.19;;;9.52;65.08
62438;BME280;48481;0.000;0.000;2023-05-29T02:13:34;102024.22;;;9.50;64.43
62438;BME280;48481;0.000;0.000;2023-05-29T02:15:59;102026.63;;;9.21;65.83
62438;BME280;48481;0.000;0.000;2023-05-29T02:18:25;102025.47;;;9.14;66.04
62438;BME280;48481;0.000;0.000;2023-05-29T02:20:50;102021.28;;;9.00;66.62
62438;BME280;48481;0.000;0.000;2023-05-29T02:23:16;102020.06;;;9.15;65.97
62438;BME280;48481;0.000;0.000;2023-05-29T02:25:41;102028.53;;;8.87;66.81
62438;BME280;48481;0.000;0.000;2023-05-29T02:28:07;102024.22;;;8.86;66.87
62438;BME280;48481;0.000;0.000;2023-05-29T02:30:33;102033.31;;;8.93;66.53
62438;BME280;48481;0.000;0.000;2023-05-29T02:32:58;102030.47;;;8.85;66.87
62438;BME280;48481;0.000;0.000;2023-05-29T02:35:24;102028.38;;;9.00;66.54
62438;BME280;48481;0.000;0.000;2023-05-29T02:37:50;102016.91;;;8.89;67.01
62438;BME280;48481;0.000;0.000;2023-05-29T02:40:16;102018.25;;;9.16;65.57
62438;BME280;48481;0.000;0.000;2023-05-29T02:42:42;102019.16;;;8.94;66.54
62438;BME280;48481;0.000;0.000;2023-05-29T02:45:07;102014.28;;;8.78;66.86
62438;BME280;48481;0.000;0.000;2023-05-29T02:47:35;102017.06;;;8.77;67.23
62438;BME280;48481;0.000;0.000;2023-05-29T02:50:01;102019.91;;;8.85;66.92
62438;BME280;48481;0.000;0.000;2023-05-29T02:52:26;102025.53;;;8.92;66.67
62438;BME280;48481;0.000;0.000;2023-05-29T02:54:52;102026.75;;;8.87;66.73
62438;BME280;48481;0.000;0.000;2023-05-29T02:57:19;102022.00;;;9.13;65.77
62438;BME280;48481;0.000;0.000;2023-05-29T02:59:45;102019.50;;;9.01;65.95
62438;BME280;48481;0.000;0.000;2023-05-29T03:02:10;102029.69;;;9.05;65.93
62438;BME280;48481;0.000;0.000;2023-05-29T03:04:36;102027.13;;;8.83;66.54
62438;BME280;48481;0.000;0.000;2023-05-29T03:07:01;102025.09;;;8.75;66.75
62438;BME280;48481;0.000;0.000;2023-05-29T03:09:27;102017.72;;;8.90;66.11
62438;BME280;48481;0.000;0.000;2023-05-29T03:11:52;102024.81;;;8.46;67.83
62438;BME280;48481;0.000;0.000;2023-05-29T03:14:18;102015.53;;;8.63;67.43
62438;BME280;48481;0.000;0.000;2023-05-29T03:16:44;102031.47;;;8.73;67.00
62438;BME280;48481;0.000;0.000;2023-05-29T03:19:10;102032.31;;;8.73;67.11
62438;BME280;48481;0.000;0.000;2023-05-29T03:21:35;102025.44;;;8.82;66.68
62438;BME280;48481;0.000;0.000;2023-05-29T03:24:01;102025.03;;;8.98;66.45
62438;BME280;48481;0.000;0.000;2023-05-29T03:26:28;102020.28;;;8.80;66.61
62438;BME280;48481;0.000;0.000;2023-05-29T03:28:54;102022.00;;;8.70;66.83
62438;BME280;48481;0.000;0.000;2023-05-29T03:31:19;102030.97;;;8.79;66.61
62438;BME280;48481;0.000;0.000;2023-05-29T03:33:45;102029.34;;;8.33;68.30
62438;BME280;48481;0.000;0.000;2023-05-29T03:36:10;102030.53;;;8.40;68.04
62438;BME280;48481;0.000;0.000;2023-05-29T03:38:36;102033.88;;;8.31;68.18
62438;BME280;48481;0.000;0.000;2023-05-29T03:41:01;102034.13;;;8.62;67.40
62438;BME280;48481;0.000;0.000;2023-05-29T03:43:27;102029.38;;;8.87;66.41
62438;BME280;48481;0.000;0.000;2023-05-29T03:45:52;102034.06;;;8.84;66.79
62438;BME280;48481;0.000;0.000;2023-05-29T03:48:17;102034.06;;;8.84;66.60
62438;BME280;48481;0.000;0.000;2023-05-29T03:50:45;102039.88;;;8.67;66.79
62438;BME280;48481;0.000;0.000;2023-05-29T03:53:10;102043.34;;;8.45;67.82
62438;BME280;48481;0.000;0.000;2023-05-29T03:55:35;102043.97;;;8.48;67.96
62438;BME280;48481;0.000;0.000;2023-05-29T03:58:01;102048.38;;;8.25;68.55
62438;BME280;48481;0.000;0.000;2023-05-29T04:00:26;102039.78;;;8.35;68.44
62438;BME280;48481;0.000;0.000;2023-05-29T04:02:52;102042.53;;;8.33;68.60
62438;BME280;48481;0.000;0.000;2023-05-29T04:05:17;102041.09;;;8.40;68.29
62438;BME280;48481;0.000;0.000;2023-05-29T04:07:43;102051.28;;;8.67;67.38
62438;BME280;48481;0.000;0.000;2023-05-29T04:10:08;102048.91;;;8.53;68.11
62438;BME280;48481;0.000;0.000;2023-05-29T04:12:34;102047.63;;;8.79;67.02
62438;BME280;48481;0.000;0.000;2023-05-29T04:14:59;102057.97;;;8.71;67.27
62438;BME280;48481;0.000;0.000;2023-05-29T04:17:25;102054.28;;;8.51;67.92
62438;BME280;48481;0.000;0.000;2023-05-29T04:19:51;102062.94;;;8.53;68.13
62438;BME280;48481;0.000;0.000;2023-05-29T04:22:16;102069.59;;;8.80;67.08
62438;BME280;48481;0.000;0.000;2023-05-29T04:24:42;102067.41;;;8.85;67.11
62438;BME280;48481;0.000;0.000;2023-05-29T04:27:08;102066.59;;;9.28;65.16
62438;BME280;48481;0.000;0.000;2023-05-29T04:29:38;102065.44;;;9.09;65.66
62438;BME280;48481;0.000;0.000;2023-05-29T04:32:06;102071.63;;;9.31;64.87
62438;BME280;48481;0.000;0.000;2023-05-29T04:34:33;102074.72;;;9.36;64.50
62438;BME280;48481;0.000;0.000;2023-05-29T04:36:59;102073.13;;;9.44;64.50
62438;BME280;48481;0.000;0.000;2023-05-29T04:39:25;102068.16;;;9.72;63.79
62438;BME280;48481;0.000;0.000;2023-05-29T04:41:51;102077.53;;;9.97;62.49
62438;BME280;48481;0.000;0.000;2023-05-29T04:44:17;102069.16;;;9.92;62.90
62438;BME280;48481;0.000;0.000;2023-05-29T04:46:43;102071.13;;;9.58;64.02
62438;BME280;48481;0.000;0.000;2023-05-29T04:49:10;102065.41;;;9.73;63.05
62438;BME280;48481;0.000;0.000;2023-05-29T04:51:35;102073.38;;;9.62;63.97
62438;BME280;48481;0.000;0.000;2023-05-29T04:54:01;102076.09;;;9.51;63.71
62438;BME280;48481;0.000;0.000;2023-05-29T04:56:28;102079.44;;;9.53;63.89
62438;BME280;48481;0.000;0.000;2023-05-29T04:58:53;102076.69;;;9.96;62.31
62438;BME280;48481;0.000;0.000;2023-05-29T05:01:19;102089.22;;;9.94;62.66
62438;BME280;48481;0.000;0.000;2023-05-29T05:03:44;102087.88;;;9.79;62.93
62438;BME280;48481;0.000;0.000;2023-05-29T05:06:10;102088.56;;;10.02;62.05
62438;BME280;48481;0.000;0.000;2023-05-29T05:08:38;102093.31;;;10.08;61.96
62438;BME280;48481;0.000;0.000;2023-05-29T05:11:03;102094.34;;;9.54;64.19
62438;BME280;48481;0.000;0.000;2023-05-29T05:13:29;102088.59;;;9.70;63.58
62438;BME280;48481;0.000;0.000;2023-05-29T05:15:55;102089.06;;;9.75;63.36
62438;BME280;48481;0.000;0.000;2023-05-29T05:18:20;102088.69;;;9.79;63.62
62438;BME280;48481;0.000;0.000;2023-05-29T05:20:45;102092.34;;;10.09;62.26
62438;BME280;48481;0.000;0.000;2023-05-29T05:23:11;102097.91;;;10.27;61.78
62438;BME280;48481;0.000;0.000;2023-05-29T05:25:37;102093.84;;;10.02;62.55
62438;BME280;48481;0.000;0.000;2023-05-29T05:28:04;102097.09;;;10.36;61.44
62438;BME280;48481;0.000;0.000;2023-05-29T05:30:29;102091.59;;;9.76;63.51
62438;BME280;48481;0.000;0.000;2023-05-29T05:32:55;102100.19;;;9.90;62.98
62438;BME280;48481;0.000;0.000;2023-05-29T05:35:21;102088.31;;;9.84;63.18
62438;BME280;48481;0.000;0.000;2023-05-29T05:37:46;102091.78;;;10.26;61.83
62438;BME280;48481;0.000;0.000;2023-05-29T05:40:12;102086.88;;;10.22;61.93
62438;BME280;48481;0.000;0.000;2023-05-29T05:42:37;102091.03;;;10.45;60.69
62438;BME280;48481;0.000;0.000;2023-05-29T05:45:03;102099.97;;;10.23;61.43
62438;BME280;48481;0.000;0.000;2023-05-29T05:47:29;102089.56;;;10.10;61.81
62438;BME280;48481;0.000;0.000;2023-05-29T05:49:54;102101.50;;;9.63;63.20
62438;BME280;48481;0.000;0.000;2023-05-29T05:52:21;102096.19;;;9.95;62.68
62438;BME280;48481;0.000;0.000;2023-05-29T05:54:46;102092.72;;;10.46;61.09
62438;BME280;48481;0.000;0.000;2023-05-29T05:57:12;102090.72;;;10.38;60.81
62438;BME280;48481;0.000;0.000;2023-05-29T05:59:38;102096.25;;;10.56;60.36
62438;BME280;48481;0.000;0.000;2023-05-29T06:02:04;102097.19;;;10.45;60.27
62438;BME280;48481;0.000;0.000;2023-05-29T06:04:29;102098.91;;;10.66;59.52
62438;BME280;48481;0.000;0.000;2023-05-29T06:06:55;102093.88;;;10.32;61.07
62438;BME280;48481;0.000;0.000;2023-05-29T06:09:21;102106.88;;;10.14;61.40
62438;BME280;48481;0.000;0.000;2023-05-29T06:11:47;102096.72;;;10.20;61.28
62438;BME280;48481;0.000;0.000;2023-05-29T06:14:13;102098.66;;;10.38;60.47
62438;BME280;48481;0.000;0.000;2023-05-29T06:16:39;102096.16;;;10.77;59.67
62438;BME280;48481;0.000;0.000;2023-05-29T06:19:04;102097.56;;;10.81;59.29
62438;BME280;48481;0.000;0.000;2023-05-29T06:21:31;102100.59;;;11.17;58.72
62438;BME280;48481;0.000;0.000;2023-05-29T06:23:56;102094.44;;;11.16;58.08
62438;BME280;48481;0.000;0.000;2023-05-29T06:26:22;102098.22;;;11.23;58.09
62438;BME280;48481;0.000;0.000;2023-05-29T06:28:50;102094.72;;;11.52;57.49
62438;BME280;48481;0.000;0.000;2023-05-29T06:31:15;102090.13;;;11.63;56.72
62438;BME280;48481;0.000;0.000;2023-05-29T06:33:41;102092.78;;;11.63;56.90
62438;BME280;48481;0.000;0.000;2023-05-29T06:36:06;102085.09;;;11.60;56.36
62438;BME280;48481;0.000;0.000;2023-05-29T06:38:32;102088.88;;;11.29;56.93
62438;BME280;48481;0.000;0.000;2023-05-29T06:40:57;102094.72;;;11.61;55.84
62438;BME280;48481;0.000;0.000;2023-05-29T06:43:22;102094.72;;;11.61;55.41
62438;BME280;48481;0.000;0.000;2023-05-29T06:45:48;102095.59;;;11.71;54.66
62438;BME280;48481;0.000;0.000;2023-05-29T06:48:14;102093.91;;;11.41;56.04
62438;BME280;48481;0.000;0.000;2023-05-29T06:50:40;102087.19;;;11.66;55.33
62438;BME280;48481;0.000;0.000;2023-05-29T06:53:05;102086.06;;;11.59;55.48
62438;BME280;48481;0.000;0.000;2023-05-29T06:55:30;102089.16;;;11.45;55.82
62438;BME280;48481;0.000;0.000;2023-05-29T06:57:56;102091.38;;;11.21;55.66
62438;BME280;48481;0.000;0.000;2023-05-29T07:00:21;102101.06;;;10.91;56.94
62438;BME280;48481;0.000;0.000;2023-05-29T07:02:48;102104.97;;;10.87;57.41
62438;BME280;48481;0.000;0.000;2023-05-29T07:05:13;102108.53;;;11.36;56.65
62438;BME280;48481;0.000;0.000;2023-05-29T07:07:38;102103.41;;;11.73;55.88
62438;BME280;48481;0.000;0.000;2023-05-29T07:10:04;102118.88;;;11.58;55.36
62438;BME280;48481;0.000;0.000;2023-05-29T07:12:31;102110.91;;;11.58;55.51
62438;BME280;48481;0.000;0.000;2023-05-29T07:14:56;102105.78;;;11.86;55.01
62438;BME280;48481;0.000;0.000;2023-05-29T07:17:22;102105.75;;;11.57;56.35
62438;BME280;48481;0.000;0.000;2023-05-29T07:19:47;102115.38;;;11.48;56.81
62438;BME280;48481;0.000;0.000;2023-05-29T07:22:15;102115.41;;;11.77;55.40
62438;BME280;48481;0.000;0.000;2023-05-29T07:24:40;102111.03;;;12.15;54.24
62438;BME280;48481;0.000;0.000;2023-05-29T07:27:06;102118.44;;;12.11;54.11
62438;BME280;48481;0.000;0.000;2023-05-29T07:29:31;102128.19;;;12.20;54.28
62438;BME280;48481;0.000;0.000;2023-05-29T07:31:57;102112.56;;;12.07;54.56
62438;BME280;48481;0.000;0.000;2023-05-29T07:34:22;102123.31;;;12.16;54.58
62438;BME280;48481;0.000;0.000;2023-05-29T07:37:02;102118.22;;;12.42;53.19
62438;BME280;48481;0.000;0.000;2023-05-29T07:39:28;102121.38;;;12.55;53.14
62438;BME280;48481;0.000;0.000;2023-05-29T07:41:54;102121.38;;;12.55;54.14
62438;BME280;48481;0.000;0.000;2023-05-29T07:44:19;102112.06;;;12.41;53.97
62438;BME280;48481;0.000;0.000;2023-05-29T07:46:45;102120.91;;;12.22;54.58
62438;BME280;48481;0.000;0.000;2023-05-29T07:49:11;102116.56;;;12.41;53.25
62438;BME280;48481;0.000;0.000;2023-05-29T07:51:36;102115.69;;;12.77;52.19
62438;BME280;48481;0.000;0.000;2023-05-29T07:54:02;102112.13;;;13.14;50.98
62438;BME280;48481;0.000;0.000;2023-05-29T07:56:27;102117.53;;;12.94;51.92
62438;BME280;48481;0.000;0.000;2023-05-29T07:58:53;102123.25;;;12.99;51.99
62438;BME280;48481;0.000;0.000;2023-05-29T08:01:20;102127.78;;;12.15;52.92
62438;BME280;48481;0.000;0.000;2023-05-29T08:03:46;102129.25;;;12.47;53.40
62438;BME280;48481;0.000;0.000;2023-05-29T08:06:12;102126.34;;;12.67;52.99
62438;BME280;48481;0.000;0.000;2023-05-29T08:08:38;102126.28;;;13.32;51.54
62438;BME280;48481;0.000;0.000;2023-05-29T08:11:03;102117.03;;;13.54;51.01
62438;BME280;48481;0.000;0.000;2023-05-29T08:13:29;102118.47;;;13.48;50.20
62438;BME280;48481;0.000;0.000;2023-05-29T08:15:55;102119.91;;;13.60;50.17
62438;BME280;48481;0.000;0.000;2023-05-29T08:18:24;102126.16;;;13.69;49.68
62438;BME280;48481;0.000;0.000;2023-05-29T08:20:52;102116.16;;;13.89;48.76
62438;BME280;48481;0.000;0.000;2023-05-29T08:23:18;102119.16;;;14.12;48.29
62438;BME280;48481;0.000;0.000;2023-05-29T08:25:44;102120.69;;;13.71;49.73
62438;BME280;48481;0.000;0.000;2023-05-29T08:28:10;102116.25;;;13.61;50.52
62438;BME280;48481;0.000;0.000;2023-05-29T08:30:35;102114.59;;;13.60;49.95
62438;BME280;48481;0.000;0.000;2023-05-29T08:33:02;102114.75;;;14.03;48.94
62438;BME280;48481;0.000;0.000;2023-05-29T08:35:28;102116.38;;;14.21;48.84
62438;BME280;48481;0.000;0.000;2023-05-29T08:37:53;102111.31;;;14.10;48.59
62438;BME280;48481;0.000;0.000;2023-05-29T08:40:19;102103.41;;;14.44;48.06
62438;BME280;48481;0.000;0.000;2023-05-29T08:42:55;102115.16;;;14.68;46.73
62438;BME280;48481;0.000;0.000;2023-05-29T08:45:22;102107.63;;;14.55;47.86
62438;BME280;48481;0.000;0.000;2023-05-29T08:47:51;102115.06;;;14.25;48.44
62438;BME280;48481;0.000;0.000;2023-05-29T08:50:19;102115.97;;;14.60;48.68
62438;BME280;48481;0.000;0.000;2023-05-29T08:52:45;102117.84;;;14.42;48.51
62438;BME280;48481;0.000;0.000;2023-05-29T08:55:11;102102.50;;;14.70;48.38
62438;BME280;48481;0.000;0.000;2023-05-29T08:57:37;102114.03;;;14.78;45.92
62438;BME280;48481;0.000;0.000;2023-05-29T09:00:06;102115.31;;;14.66;45.15
62438;BME280;48481;0.000;0.000;2023-05-29T09:02:37;102109.81;;;15.10;45.93
62438;BME280;48481;0.000;0.000;2023-05-29T09:05:02;102116.13;;;15.01;46.43
62438;BME280;48481;0.000;0.000;2023-05-29T09:07:29;102115.50;;;15.15;45.64
62438;BME280;48481;0.000;0.000;2023-05-29T09:09:55;102121.97;;;14.62;47.02
62438;BME280;48481;0.000;0.000;2023-05-29T09:12:21;102114.31;;;15.09;45.70
62438;BME280;48481;0.000;0.000;2023-05-29T09:14:47;102111.38;;;14.78;45.37
62438;BME280;48481;0.000;0.000;2023-05-29T09:17:13;102118.00;;;14.74;44.82
62438;BME280;48481;0.000;0.000;2023-05-29T09:19:38;102117.50;;;15.21;44.80
62438;BME280;48481;0.000;0.000;2023-05-29T09:22:12;102109.66;;;15.19;44.73
62438;BME280;48481;0.000;0.000;2023-05-29T09:24:47;102112.84;;;15.23;44.84
62438;BME280;48481;0.000;0.000;2023-05-29T09:27:13;102119.16;;;15.22;44.93
62438;BME280;48481;0.000;0.000;2023-05-29T09:29:39;102116.16;;;15.09;44.05
62438;BME280;48481;0.000;0.000;2023-05-29T09:32:26;102113.50;;;15.17;45.10
62438;BME280;48481;0.000;0.000;2023-05-29T09:34:59;102120.69;;;15.33;44.09
62438;BME280;48481;0.000;0.000;2023-05-29T09:37:25;102112.84;;;15.31;44.39
62438;BME280;48481;0.000;0.000;2023-05-29T09:39:50;102113.06;;;15.87;43.02
62438;BME280;48481;0.000;0.000;2023-05-29T09:42:19;102122.09;;;15.77;43.51
62438;BME280;48481;0.000;0.000;2023-05-29T09:44:48;102119.78;;;15.66;43.31
62438;BME280;48481;0.000;0.000;2023-05-29T09:47:16;102111.59;;;15.84;43.22
62438;BME280;48481;0.000;0.000;2023-05-29T09:49:42;102107.88;;;16.01;41.28
62438;BME280;48481;0.000;0.000;2023-05-29T09:52:11;102115.25;;;15.91;40.63
62438;BME280;48481;0.000;0.000;2023-05-29T09:54:41;102112.88;;;16.12;40.99
62438;BME280;48481;0.000;0.000;2023-05-29T09:57:07;102116.84;;;16.25;41.27
62438;BME280;48481;0.000;0.000;2023-05-29T09:59:35;102112.53;;;16.07;41.47
62438;BME280;48481;0.000;0.000;2023-05-29T10:02:03;102112.53;;;16.07;40.90
62438;BME280;48481;0.000;0.000;2023-05-29T10:04:33;102112.34;;;16.17;42.14
62438;BME280;48481;0.000;0.000;2023-05-29T10:07:01;102105.88;;;16.03;41.77
62438;BME280;48481;0.000;0.000;2023-05-29T10:09:29;102118.72;;;16.00;42.26
62438;BME280;48481;0.000;0.000;2023-05-29T10:11:56;102109.53;;;16.27;41.71
62438;BME280;48481;0.000;0.000;2023-05-29T10:14:25;102105.00;;;16.35;42.34
62438;BME280;48481;0.000;0.000;2023-05-29T10:16:54;102099.22;;;16.55;42.46
62438;BME280;48481;0.000;0.000;2023-05-29T10:19:25;102093.53;;;16.66;41.19
62438;BME280;48481;0.000;0.000;2023-05-29T10:21:53;102095.53;;;16.00;41.78
62438;BME280;48481;0.000;0.000;2023-05-29T10:24:21;102097.31;;;16.24;41.51
62438;BME280;48481;0.000;0.000;2023-05-29T10:26:49;102099.50;;;16.12;41.64
62438;BME280;48481;0.000;0.000;2023-05-29T10:39:53;102076.22;;;16.85;40.51
62438;BME280;48481;0.000;0.000;2023-05-29T10:45:07;102086.56;;;16.88;40.26
62438;BME280;48481;0.000;0.000;2023-05-29T10:47:32;102077.22;;;16.84;40.53
62438;BME280;48481;0.000;0.000;2023-05-29T10:50:02;102075.19;;;16.94;40.44
62438;BME280;48481;0.000;0.000;2023-05-29T10:52:33;102079.16;;;16.67;40.56
62438;BME280;48481;0.000;0.000;2023-05-29T10:54:59;102074.97;;;16.72;40.49
62438;BME280;48481;0.000;0.000;2023-05-29T10:57:29;102073.56;;;17.16;40.15
62438;BME280;48481;0.000;0.000;2023-05-29T11:00:07;102080.69;;;17.23;38.90
62438;BME280;48481;0.000;0.000;2023-05-29T11:02:39;102074.91;;;17.11;39.26
62438;BME280;48481;0.000;0.000;2023-05-29T11:05:18;102067.59;;;17.28;39.88
62438;BME280;48481;0.000;0.000;2023-05-29T11:07:56;102062.50;;;17.19;38.55
62438;BME280;48481;0.000;0.000;2023-05-29T11:10:45;102059.03;;;17.10;38.01
62438;BME280;48481;0.000;0.000;2023-05-29T11:13:33;102054.53;;;17.10;37.99
62438;BME280;48481;0.000;0.000;2023-05-29T11:16:05;102055.06;;;17.06;38.43
62438;BME280;48481;0.000;0.000;2023-05-29T11:18:42;102065.00;;;17.20;37.25
62438;BME280;48481;0.000;0.000;2023-05-29T11:21:34;102054.63;;;17.40;37.67
62438;BME280;48481;0.000;0.000;2023-05-29T11:24:14;102062.28;;;17.66;36.99
62438;BME280;48481;0.000;0.000;2023-05-29T11:26:45;102056.31;;;17.18;36.62
62438;BME280;48481;0.000;0.000;2023-05-29T11:29:13;102054.22;;;16.74;37.82
62438;BME280;48481;0.000;0.000;2023-05-29T11:31:40;102065.44;;;16.70;38.77
62438;BME280;48481;0.000;0.000;2023-05-29T11:34:09;102055.78;;;17.00;37.95
62438;BME280;48481;0.000;0.000;2023-05-29T11:36:39;102055.75;;;17.46;37.09
62438;BME280;48481;0.000;0.000;2023-05-29T11:39:05;102050.16;;;17.55;36.58
62438;BME280;48481;0.000;0.000;2023-05-29T11:41:30;102050.47;;;17.37;37.35
62438;BME280;48481;0.000;0.000;2023-05-29T11:44:00;102044.69;;;17.49;37.53
62438;BME280;48481;0.000;0.000;2023-05-29T11:46:28;102035.50;;;17.28;38.99
62438;BME280;48481;0.000;0.000;2023-05-29T11:48:58;102045.91;;;17.84;37.57
62438;BME280;48481;0.000;0.000;2023-05-29T11:51:23;102043.44;;;18.12;37.10
62438;BME280;48481;0.000;0.000;2023-05-29T11:53:49;102044.34;;;17.74;35.93
62438;BME280;48481;0.000;0.000;2023-05-29T11:56:18;102054.59;;;18.00;35.12
62438;BME280;48481;0.000;0.000;2023-05-29T11:58:44;102046.66;;;18.07;35.04
62438;BME280;48481;0.000;0.000;2023-05-29T12:01:10;102052.19;;;17.91;36.03
62438;BME280;48481;0.000;0.000;2023-05-29T12:03:39;102044.16;;;17.30;37.35
62438;BME280;48481;0.000;0.000;2023-05-29T12:06:05;102044.31;;;17.52;36.57
62438;BME280;48481;0.000;0.000;2023-05-29T12:08:32;102036.84;;;18.14;36.90
62438;BME280;48481;0.000;0.000;2023-05-29T12:10:57;102034.47;;;18.19;35.78
62438;BME280;48481;0.000;0.000;2023-05-29T12:13:23;102026.59;;;18.18;34.97
62438;BME280;48481;0.000;0.000;2023-05-29T12:15:52;102040.31;;;18.23;35.86
62438;BME280;48481;0.000;0.000;2023-05-29T12:18:18;102037.59;;;17.79;36.13
62438;BME280;48481;0.000;0.000;2023-05-29T12:20:43;102035.28;;;17.90;35.73
62438;BME280;48481;0.000;0.000;2023-05-29T12:23:09;102037.34;;;17.05;37.50
62438;BME280;48481;0.000;0.000;2023-05-29T12:25:34;102031.03;;;17.66;37.14
62438;BME280;48481;0.000;0.000;2023-05-29T12:28:03;102037.50;;;17.72;36.63
62438;BME280;48481;0.000;0.000;2023-05-29T12:30:29;102039.94;;;17.59;37.43
62438;BME280;48481;0.000;0.000;2023-05-29T12:32:54;102037.13;;;17.52;37.82
62438;BME280;48481;0.000;0.000;2023-05-29T12:35:22;102042.13;;;17.78;37.24
62438;BME280;48481;0.000;0.000;2023-05-29T12:37:48;102038.16;;;18.03;36.61
62438;BME280;48481;0.000;0.000;2023-05-29T12:40:19;102028.47;;;18.32;36.03
62438;BME280;48481;0.000;0.000;2023-05-29T12:42:46;102035.09;;;18.65;35.12
62438;BME280;48481;0.000;0.000;2023-05-29T12:45:12;102041.13;;;18.38;35.58
62438;BME280;48481;0.000;0.000;2023-05-29T12:47:37;102027.16;;;17.98;35.88
62438;BME280;48481;0.000;0.000;2023-05-29T12:50:23;102015.91;;;17.88;35.56
62438;BME280;48481;0.000;0.000;2023-05-29T12:55:20;102014.34;;;18.23;35.49
62438;BME280;48481;0.000;0.000;2023-05-29T12:57:46;102013.22;;;18.32;34.89
62438;BME280;48481;0.000;0.000;2023-05-29T13:00:13;102010.44;;;18.11;34.30
62438;BME280;48481;0.000;0.000;2023-05-29T13:02:38;102005.81;;;18.05;34.96
62438;BME280;48481;0.000;0.000;2023-05-29T13:05:04;102007.94;;;18.10;35.67
62438;BME280;48481;0.000;0.000;2023-05-29T13:07:31;102007.72;;;18.55;34.68
62438;BME280;48481;0.000;0.000;2023-05-29T13:09:56;102012.84;;;18.86;34.85
62438;BME280;48481;0.000;0.000;2023-05-29T13:12:21;102001.94;;;18.88;34.77
62438;BME280;48481;0.000;0.000;2023-05-29T13:14:47;101998.03;;;18.90;34.55
62438;BME280;48481;0.000;0.000;2023-05-29T13:17:12;101993.47;;;19.12;33.25
62438;BME280;48481;0.000;0.000;2023-05-29T13:19:38;102000.69;;;18.69;33.67